createdAt,value
2019-04-04T00:03:51.860Z,11.60
2019-04-04T00:08:51.846Z,12.60
2019-04-04T00:13:51.473Z,10.90
2019-04-04T00:18:51.497Z,9.13
2019-04-04T00:23:51.105Z,8.43
2019-04-04T00:28:50.725Z,8.97
2019-04-04T00:33:50.362Z,11.43
2019-04-04T00:38:50.066Z,11.10
2019-04-04T00:43:49.859Z,9.30
2019-04-04T00:48:51.037Z,11.27
2019-04-04T00:53:50.660Z,11.83
2019-04-04T00:58:52.076Z,12.50
2019-04-04T01:03:51.609Z,10.73
2019-04-04T01:08:51.503Z,14.03
2019-04-04T01:13:51.113Z,12.30
2019-04-04T01:18:50.744Z,12.77
2019-04-04T01:23:50.683Z,10.40
2019-04-04T01:28:50.594Z,8.43
2019-04-04T01:33:51.576Z,9.70
2019-04-04T01:38:51.517Z,9.97
2019-04-04T01:43:51.129Z,8.43
2019-04-04T01:48:50.786Z,7.07
2019-04-04T01:53:50.431Z,9.10
2019-04-04T01:58:50.046Z,9.40
2019-04-04T02:03:49.672Z,7.00
2019-04-04T02:08:49.318Z,7.07
2019-04-04T02:13:49.320Z,7.57
2019-04-04T02:18:48.949Z,7.70
2019-04-04T02:23:48.861Z,7.70
2019-04-04T02:28:48.519Z,7.43
2019-04-04T02:33:48.157Z,7.13
2019-04-04T02:39:05.733Z,6.80
2019-04-04T02:44:05.715Z,7.53
2019-04-04T02:49:05.741Z,7.20
2019-04-04T02:54:05.695Z,7.87
2019-04-04T02:59:05.526Z,9.00
2019-04-04T03:04:05.280Z,4.50
2019-04-04T03:09:09.096Z,8.33
2019-04-04T03:14:08.114Z,8.77
2019-04-04T03:19:10.905Z,8.10
2019-04-04T03:24:09.141Z,6.77
2019-04-04T03:29:10.634Z,4.70
2019-04-04T03:34:12.544Z,5.20
2019-04-04T03:39:11.762Z,6.17
2019-04-04T03:44:11.498Z,6.20
2019-04-04T03:49:11.151Z,5.87
2019-04-04T03:54:22.000Z,6.00
2019-04-04T03:59:19.427Z,5.60
2019-04-04T04:04:19.051Z,5.13
2019-04-04T04:09:18.711Z,5.30
2019-04-04T04:14:21.658Z,5.00
2019-04-04T04:19:23.962Z,6.70
2019-04-04T04:24:21.399Z,5.37
2019-04-04T04:29:33.376Z,5.83
2019-04-04T04:34:34.185Z,5.70
2019-04-04T04:39:40.792Z,6.80
2019-04-04T04:44:37.880Z,5.77
2019-04-04T04:49:36.756Z,9.93
2019-04-04T04:54:37.487Z,6.20
2019-04-04T04:59:37.138Z,6.20
2019-04-04T05:04:36.819Z,6.70
2019-04-04T05:09:36.450Z,7.80
2019-04-04T05:14:36.351Z,7.20
2019-04-04T05:19:35.989Z,7.27
2019-04-04T05:24:35.648Z,6.87
2019-04-04T05:29:35.330Z,8.80
2019-04-04T05:34:35.012Z,6.70
2019-04-04T05:39:34.660Z,6.17
2019-04-04T05:44:34.440Z,7.67
2019-04-04T05:49:36.150Z,7.67
2019-04-04T05:54:37.046Z,7.43
2019-04-04T05:59:38.300Z,5.90
2019-04-04T06:04:38.010Z,7.10
2019-04-04T06:09:37.676Z,7.33
2019-04-04T06:14:37.332Z,9.53
2019-04-04T06:19:38.395Z,8.53
2019-04-04T06:24:38.399Z,8.93
2019-04-04T06:29:38.383Z,7.30
2019-04-04T06:34:38.304Z,9.90
2019-04-04T06:39:38.355Z,12.57
2019-04-04T06:44:38.275Z,11.10
2019-04-04T06:49:38.527Z,13.80
2019-04-04T06:54:38.190Z,13.13
2019-04-04T06:59:37.934Z,15.90
2019-04-04T07:04:56.819Z,12.17
2019-04-04T07:09:56.490Z,13.13
2019-04-04T07:14:57.126Z,14.20
2019-04-04T07:19:57.034Z,10.20
2019-04-04T07:24:56.667Z,15.10
2019-04-04T07:29:57.279Z,15.77
2019-04-04T07:34:56.942Z,17.90
2019-04-04T07:39:56.627Z,17.07
2019-04-04T07:44:56.271Z,18.70
2019-04-04T07:49:55.942Z,15.33
2019-04-04T07:54:57.103Z,21.73
2019-04-04T07:59:56.758Z,19.87
2019-04-04T08:04:57.074Z,22.23
2019-04-04T08:09:56.778Z,23.03
2019-04-04T08:15:15.683Z,23.20
2019-04-04T08:20:15.453Z,24.10
2019-04-04T08:25:15.362Z,25.63
2019-04-04T08:30:16.611Z,22.87
2019-04-04T08:35:16.282Z,19.90
2019-04-04T08:40:17.396Z,24.00
2019-04-04T08:45:18.146Z,26.07
2019-04-04T08:50:17.871Z,25.30
2019-04-04T08:55:17.540Z,23.03
2019-04-04T09:00:18.245Z,25.00
2019-04-04T09:05:17.912Z,18.97
2019-04-04T09:10:17.704Z,24.53
2019-04-04T09:15:17.738Z,25.97
2019-04-04T09:20:17.531Z,27.60
2019-04-04T09:25:17.187Z,27.43
2019-04-04T09:30:17.258Z,25.70
2019-04-04T09:35:16.986Z,26.10
2019-04-04T09:40:17.007Z,24.47
2019-04-04T09:45:17.223Z,18.23
2019-04-04T09:50:17.262Z,15.40
2019-04-04T09:55:17.039Z,15.57
2019-04-04T10:00:19.038Z,14.70
2019-04-04T10:05:18.850Z,14.17
2019-04-04T10:10:18.874Z,14.10
2019-04-04T10:15:19.273Z,15.00
2019-04-04T10:20:18.994Z,16.87
2019-04-04T10:25:18.644Z,15.43
2019-04-04T10:30:20.307Z,16.40
2019-04-04T10:35:19.942Z,16.53
2019-04-04T10:40:20.063Z,18.57
2019-04-04T10:45:19.728Z,13.97
2019-04-04T10:50:19.446Z,13.00
2019-04-04T10:55:19.679Z,16.13
2019-04-04T11:00:20.083Z,16.70
2019-04-04T11:05:19.755Z,16.70
2019-04-04T11:10:19.670Z,17.53
2019-04-04T11:15:19.335Z,18.40
2019-04-04T11:20:18.978Z,17.30
2019-04-04T11:25:18.726Z,16.80
2019-04-04T11:30:18.528Z,17.53
2019-04-04T11:35:18.154Z,19.30
2019-04-04T11:40:17.822Z,20.60
2019-04-04T11:45:17.519Z,17.63
2019-04-04T11:50:17.441Z,24.30
2019-04-04T11:55:17.090Z,20.97
2019-04-04T12:00:23.338Z,22.60
2019-04-04T12:05:23.247Z,14.30
2019-04-04T12:10:22.882Z,20.93
2019-04-04T12:15:22.612Z,18.53
2019-04-04T12:20:22.346Z,21.60
2019-04-04T12:25:22.105Z,18.87
2019-04-04T12:30:21.819Z,18.10
2019-04-04T12:35:21.503Z,19.00
2019-04-04T12:40:21.484Z,19.60
2019-04-04T12:45:22.954Z,18.20
2019-04-04T12:50:22.802Z,19.30
2019-04-04T12:55:22.447Z,23.60
2019-04-04T13:00:22.194Z,18.67
2019-04-04T13:05:21.833Z,18.90
2019-04-04T13:10:32.494Z,20.27
2019-04-04T13:15:23.142Z,19.73
2019-04-04T13:20:22.882Z,20.43
2019-04-04T13:25:22.526Z,20.43
2019-04-04T13:30:23.378Z,21.20
2019-04-04T13:35:23.039Z,16.63
2019-04-04T13:40:23.666Z,13.73
2019-04-04T13:45:25.403Z,20.30
2019-04-04T13:50:24.670Z,14.43
2019-04-04T13:55:25.153Z,19.07
2019-04-04T14:00:25.898Z,18.80
2019-04-04T14:05:25.635Z,20.23
2019-04-04T14:10:25.299Z,21.90
2019-04-04T14:15:25.043Z,23.67
2019-04-04T14:20:24.719Z,18.70
2019-04-04T14:25:24.707Z,22.30
2019-04-04T14:30:24.519Z,18.70
2019-04-04T14:35:24.476Z,14.80
2019-04-04T14:40:24.403Z,22.20
2019-04-04T14:45:25.138Z,25.20
2019-04-04T14:50:24.877Z,23.23
2019-04-04T14:55:24.556Z,24.03
2019-04-04T15:00:24.187Z,23.10
2019-04-04T15:05:23.835Z,24.40
2019-04-04T15:10:23.550Z,25.67
2019-04-04T15:15:26.228Z,29.43
2019-04-04T15:20:26.175Z,28.30
2019-04-04T15:25:25.818Z,27.50
2019-04-04T15:30:25.551Z,27.37
2019-04-04T15:35:25.213Z,26.00
2019-04-04T15:40:24.971Z,25.43
2019-04-04T15:45:24.639Z,30.63
2019-04-04T15:50:24.371Z,24.00
2019-04-04T15:55:24.069Z,26.03
2019-04-04T16:00:23.960Z,19.97
2019-04-04T16:05:23.606Z,15.10
2019-04-04T16:10:23.327Z,18.03
2019-04-04T16:15:23.233Z,18.40
2019-04-04T16:20:22.963Z,23.00
2019-04-04T16:25:22.617Z,23.80
2019-04-04T16:30:22.590Z,25.00
2019-04-04T16:35:22.398Z,23.93
2019-04-04T16:40:22.301Z,19.50
2019-04-04T16:45:22.002Z,21.10
2019-04-04T16:50:22.031Z,15.47
2019-04-04T16:55:22.028Z,15.27
2019-04-04T17:00:22.435Z,24.43
2019-04-04T17:05:22.226Z,15.30
2019-04-04T17:10:21.963Z,18.13
2019-04-04T17:15:21.772Z,22.90
2019-04-04T17:20:21.512Z,19.67
2019-04-04T17:25:21.179Z,21.33
2019-04-04T17:30:21.287Z,21.85
2019-04-04T17:35:21.140Z,18.03
2019-04-04T17:40:21.004Z,17.00
2019-04-04T17:45:21.754Z,15.93
2019-04-04T17:50:22.009Z,20.60
2019-04-04T17:55:21.905Z,24.97
2019-04-04T18:00:23.193Z,28.20
2019-04-04T18:05:23.078Z,26.27
2019-04-04T18:10:22.878Z,17.67
2019-04-04T18:15:22.935Z,21.03
2019-04-04T18:20:22.592Z,18.73
2019-04-04T18:25:22.298Z,26.33
2019-04-04T18:30:22.362Z,26.37
2019-04-04T18:35:22.359Z,22.20
2019-04-04T18:40:23.253Z,20.83
2019-04-04T18:45:22.972Z,21.60
2019-04-04T18:50:22.871Z,18.13
2019-04-04T18:55:22.536Z,15.70
2019-04-04T19:00:22.463Z,13.73
2019-04-04T19:05:22.120Z,16.70
2019-04-04T19:10:22.930Z,13.53
2019-04-04T19:15:22.675Z,11.80
2019-04-04T19:20:22.418Z,13.10
2019-04-04T19:25:22.194Z,12.90
2019-04-04T19:30:22.103Z,12.17
2019-04-04T19:35:21.918Z,11.90
2019-04-04T19:40:21.573Z,13.87
2019-04-04T19:45:21.542Z,12.93
2019-04-04T19:50:21.306Z,11.60
2019-04-04T19:55:21.046Z,10.80
2019-04-04T20:00:22.298Z,12.70
2019-04-04T20:05:22.050Z,12.70
2019-04-04T20:10:22.008Z,12.50
2019-04-04T20:15:21.691Z,13.10
2019-04-04T20:20:21.903Z,13.90
2019-04-04T20:25:21.619Z,11.63
2019-04-04T20:30:35.346Z,13.00
2019-04-04T20:35:35.079Z,14.40
2019-04-04T20:40:34.738Z,13.33
2019-04-04T20:45:34.682Z,12.63
2019-04-04T20:50:35.892Z,14.80
2019-04-04T20:55:35.569Z,13.83
2019-04-04T21:00:35.306Z,14.57
2019-04-04T21:05:35.038Z,11.97
2019-04-04T21:10:34.679Z,10.70
2019-04-04T21:15:34.587Z,13.03
2019-04-04T21:20:34.251Z,13.33
2019-04-04T21:25:33.890Z,14.70
2019-04-04T21:30:33.874Z,16.23
2019-04-04T21:35:33.618Z,14.07
2019-04-04T21:40:33.259Z,12.90
2019-04-04T21:45:32.930Z,15.50
2019-04-04T21:50:32.602Z,11.27
2019-04-04T21:55:32.259Z,11.40
2019-04-04T22:00:40.981Z,14.07
2019-04-04T22:05:41.498Z,13.47
2019-04-04T22:10:41.208Z,13.30
2019-04-04T22:15:41.219Z,12.30
2019-04-04T22:20:40.930Z,13.03
2019-04-04T22:25:40.610Z,16.43
2019-04-04T22:30:40.250Z,16.67
2019-04-04T22:35:39.899Z,21.87
2019-04-04T22:40:39.627Z,20.27
2019-04-04T22:45:39.339Z,20.13
2019-04-04T22:50:39.087Z,19.00
2019-04-04T22:55:38.733Z,15.93
2019-04-04T23:00:38.458Z,20.83
2019-04-04T23:05:38.090Z,19.47
2019-04-04T23:10:38.158Z,17.00
2019-04-04T23:15:37.830Z,23.17
2019-04-04T23:20:37.498Z,26.53
2019-04-04T23:25:37.235Z,24.20
2019-04-04T23:30:36.855Z,25.10
2019-04-04T23:35:36.502Z,23.97
2019-04-04T23:40:36.222Z,23.40
2019-04-04T23:45:35.924Z,22.97
2019-04-04T23:50:35.639Z,19.73
2019-04-04T23:55:35.301Z,21.50
